sensor_id;sensor_type;location;lat;lon;timestamp;P1;durP1;ratioP1;P2;durP2;ratioP2
60336;SDS011;46978;50.288;28.624;2022-10-24T00:00:05;12.81;;;8.45;;
60336;SDS011;46978;50.288;28.624;2022-10-24T00:01:09;12.96;;;7.98;;
60336;SDS011;46978;50.288;28.624;2022-10-24T00:02:13;15.22;;;8.43;;
60336;SDS011;46978;50.288;28.624;2022-10-24T00:03:14;13.93;;;8.23;;
60336;SDS011;46978;50.288;28.624;2022-10-24T00:04:16;13.41;;;8.61;;
60336;SDS011;46978;50.288;28.624;2022-10-24T00:05:18;14.98;;;8.53;;
60336;SDS011;46978;50.288;28.624;2022-10-24T00:06:20;14.11;;;8.19;;
60336;SDS011;46978;50.288;28.624;2022-10-24T00:07:22;13.76;;;8.37;;
60336;SDS011;46978;50.288;28.624;2022-10-24T00:08:24;13.16;;;7.82;;
60336;SDS011;46978;50.288;28.624;2022-10-24T00:09:26;14.50;;;8.63;;
60336;SDS011;46978;50.288;28.624;2022-10-24T00:10:28;15.33;;;8.80;;
60336;SDS011;46978;50.288;28.624;2022-10-24T00:11:30;16.04;;;8.94;;
60336;SDS011;46978;50.288;28.624;2022-10-24T00:12:32;16.49;;;8.99;;
60336;SDS011;46978;50.288;28.624;2022-10-24T00:13:34;13.61;;;8.43;;
60336;SDS011;46978;50.288;28.624;2022-10-24T00:14:36;13.27;;;8.15;;
60336;SDS011;46978;50.288;28.624;2022-10-24T00:15:38;13.79;;;8.44;;
60336;SDS011;46978;50.288;28.624;2022-10-24T00:16:42;14.71;;;8.01;;
60336;SDS011;46978;50.288;28.624;2022-10-24T00:17:44;11.33;;;8.19;;
60336;SDS011;46978;50.288;28.624;2022-10-24T00:18:45;17.27;;;8.81;;
60336;SDS011;46978;50.288;28.624;2022-10-24T00:19:48;14.65;;;8.34;;
60336;SDS011;46978;50.288;28.624;2022-10-24T00:20:50;17.03;;;8.83;;
60336;SDS011;46978;50.288;28.624;2022-10-24T00:21:51;14.42;;;8.90;;
60336;SDS011;46978;50.288;28.624;2022-10-24T00:22:53;16.45;;;9.13;;
60336;SDS011;46978;50.288;28.624;2022-10-24T00:23:55;15.61;;;9.50;;
60336;SDS011;46978;50.288;28.624;2022-10-24T00:24:57;16.54;;;9.22;;
60336;SDS011;46978;50.288;28.624;2022-10-24T00:25:59;15.03;;;8.85;;
60336;SDS011;46978;50.288;28.624;2022-10-24T00:27:01;15.30;;;9.23;;
60336;SDS011;46978;50.288;28.624;2022-10-24T00:28:03;14.27;;;8.69;;
60336;SDS011;46978;50.288;28.624;2022-10-24T00:29:05;16.73;;;9.40;;
60336;SDS011;46978;50.288;28.624;2022-10-24T00:30:07;15.14;;;8.97;;
60336;SDS011;46978;50.288;28.624;2022-10-24T00:31:16;15.06;;;9.16;;
60336;SDS011;46978;50.288;28.624;2022-10-24T00:32:15;17.90;;;9.43;;
60336;SDS011;46978;50.288;28.624;2022-10-24T00:33:17;15.63;;;9.27;;
60336;SDS011;46978;50.288;28.624;2022-10-24T00:34:19;14.44;;;9.41;;
60336;SDS011;46978;50.288;28.624;2022-10-24T00:35:21;13.94;;;8.98;;
60336;SDS011;46978;50.288;28.624;2022-10-24T00:36:23;17.90;;;9.14;;
60336;SDS011;46978;50.288;28.624;2022-10-24T00:37:26;16.46;;;9.57;;
60336;SDS011;46978;50.288;28.624;2022-10-24T00:38:28;15.37;;;9.50;;
60336;SDS011;46978;50.288;28.624;2022-10-24T00:39:29;16.23;;;9.82;;
60336;SDS011;46978;50.288;28.624;2022-10-24T00:40:31;16.59;;;8.89;;
60336;SDS011;46978;50.288;28.624;2022-10-24T00:41:35;15.25;;;8.93;;
60336;SDS011;46978;50.288;28.624;2022-10-24T00:42:39;12.98;;;8.42;;
60336;SDS011;46978;50.288;28.624;2022-10-24T00:43:40;15.77;;;8.76;;
60336;SDS011;46978;50.288;28.624;2022-10-24T00:44:42;16.22;;;9.07;;
60336;SDS011;46978;50.288;28.624;2022-10-24T00:45:46;17.08;;;9.27;;
60336;SDS011;46978;50.288;28.624;2022-10-24T00:47:03;15.22;;;9.07;;
60336;SDS011;46978;50.288;28.624;2022-10-24T00:50:49;16.26;;;8.77;;
60336;SDS011;46978;50.288;28.624;2022-10-24T00:51:54;13.10;;;8.44;;
60336;SDS011;46978;50.288;28.624;2022-10-24T00:52:58;14.82;;;8.18;;
60336;SDS011;46978;50.288;28.624;2022-10-24T00:54:02;12.33;;;8.11;;
60336;SDS011;46978;50.288;28.624;2022-10-24T00:55:05;14.19;;;8.34;;
60336;SDS011;46978;50.288;28.624;2022-10-24T00:56:10;14.10;;;8.78;;
60336;SDS011;46978;50.288;28.624;2022-10-24T00:57:25;13.48;;;8.01;;
60336;SDS011;46978;50.288;28.624;2022-10-24T00:58:44;13.72;;;7.49;;
60336;SDS011;46978;50.288;28.624;2022-10-24T00:59:48;14.24;;;8.23;;
60336;SDS011;46978;50.288;28.624;2022-10-24T01:00:53;14.59;;;8.42;;
60336;SDS011;46978;50.288;28.624;2022-10-24T01:01:55;12.73;;;8.00;;
60336;SDS011;46978;50.288;28.624;2022-10-24T01:02:57;14.77;;;9.17;;
60336;SDS011;46978;50.288;28.624;2022-10-24T01:04:00;15.02;;;8.85;;
60336;SDS011;46978;50.288;28.624;2022-10-24T01:05:02;13.63;;;8.45;;
60336;SDS011;46978;50.288;28.624;2022-10-24T01:10:21;15.53;;;8.45;;
60336;SDS011;46978;50.288;28.624;2022-10-24T01:16:46;14.25;;;8.26;;
60336;SDS011;46978;50.288;28.624;2022-10-24T01:17:54;13.41;;;8.73;;
60336;SDS011;46978;50.288;28.624;2022-10-24T01:20:27;15.21;;;8.88;;
60336;SDS011;46978;50.288;28.624;2022-10-24T01:21:42;14.04;;;7.89;;
60336;SDS011;46978;50.288;28.624;2022-10-24T01:22:53;13.66;;;8.54;;
60336;SDS011;46978;50.288;28.624;2022-10-24T01:25:16;15.91;;;8.47;;
60336;SDS011;46978;50.288;28.624;2022-10-24T01:30:16;14.35;;;8.07;;
60336;SDS011;46978;50.288;28.624;2022-10-24T01:31:27;13.80;;;8.34;;
60336;SDS011;46978;50.288;28.624;2022-10-24T01:33:53;12.96;;;8.49;;
60336;SDS011;46978;50.288;28.624;2022-10-24T01:36:25;13.62;;;8.54;;
60336;SDS011;46978;50.288;28.624;2022-10-24T01:38:43;15.55;;;8.22;;
60336;SDS011;46978;50.288;28.624;2022-10-24T01:39:47;14.86;;;8.46;;
60336;SDS011;46978;50.288;28.624;2022-10-24T01:40:54;13.50;;;8.32;;
60336;SDS011;46978;50.288;28.624;2022-10-24T01:41:58;15.24;;;8.91;;
60336;SDS011;46978;50.288;28.624;2022-10-24T01:43:05;14.59;;;8.97;;
60336;SDS011;46978;50.288;28.624;2022-10-24T01:44:20;13.86;;;8.43;;
60336;SDS011;46978;50.288;28.624;2022-10-24T01:45:21;13.90;;;8.38;;
60336;SDS011;46978;50.288;28.624;2022-10-24T01:46:29;13.61;;;8.72;;
60336;SDS011;46978;50.288;28.624;2022-10-24T01:47:37;15.94;;;8.88;;
60336;SDS011;46978;50.288;28.624;2022-10-24T01:48:46;14.94;;;8.94;;
60336;SDS011;46978;50.288;28.624;2022-10-24T01:50:01;14.67;;;7.89;;
60336;SDS011;46978;50.288;28.624;2022-10-24T01:51:01;13.62;;;7.87;;
60336;SDS011;46978;50.288;28.624;2022-10-24T01:52:07;13.42;;;8.37;;
60336;SDS011;46978;50.288;28.624;2022-10-24T01:53:12;15.97;;;8.74;;
60336;SDS011;46978;50.288;28.624;2022-10-24T01:54:14;14.78;;;7.66;;
60336;SDS011;46978;50.288;28.624;2022-10-24T01:55:17;12.98;;;7.72;;
60336;SDS011;46978;50.288;28.624;2022-10-24T01:56:19;15.53;;;7.95;;
60336;SDS011;46978;50.288;28.624;2022-10-24T01:57:25;13.36;;;7.66;;
60336;SDS011;46978;50.288;28.624;2022-10-24T02:00:38;14.53;;;7.47;;
60336;SDS011;46978;50.288;28.624;2022-10-24T02:01:42;13.26;;;8.11;;
60336;SDS011;46978;50.288;28.624;2022-10-24T02:02:45;12.92;;;8.22;;
60336;SDS011;46978;50.288;28.624;2022-10-24T02:03:57;12.62;;;7.07;;
60336;SDS011;46978;50.288;28.624;2022-10-24T02:05:02;14.18;;;7.58;;
60336;SDS011;46978;50.288;28.624;2022-10-24T02:07:14;11.93;;;7.43;;
60336;SDS011;46978;50.288;28.624;2022-10-24T02:08:21;11.38;;;7.33;;
60336;SDS011;46978;50.288;28.624;2022-10-24T02:09:25;14.39;;;7.61;;
60336;SDS011;46978;50.288;28.624;2022-10-24T02:10:28;12.70;;;7.13;;
60336;SDS011;46978;50.288;28.624;2022-10-24T02:11:38;11.38;;;7.38;;
60336;SDS011;46978;50.288;28.624;2022-10-24T02:12:43;12.29;;;7.71;;
60336;SDS011;46978;50.288;28.624;2022-10-24T02:15:10;11.75;;;7.53;;
60336;SDS011;46978;50.288;28.624;2022-10-24T02:16:13;13.14;;;8.16;;
60336;SDS011;46978;50.288;28.624;2022-10-24T02:17:17;11.18;;;7.41;;
60336;SDS011;46978;50.288;28.624;2022-10-24T02:18:19;12.77;;;7.47;;
60336;SDS011;46978;50.288;28.624;2022-10-24T02:19:21;13.25;;;7.42;;
60336;SDS011;46978;50.288;28.624;2022-10-24T02:20:44;12.12;;;7.29;;
60336;SDS011;46978;50.288;28.624;2022-10-24T02:22:06;11.02;;;6.82;;
60336;SDS011;46978;50.288;28.624;2022-10-24T02:23:30;11.16;;;6.70;;
60336;SDS011;46978;50.288;28.624;2022-10-24T02:24:37;11.29;;;7.31;;
60336;SDS011;46978;50.288;28.624;2022-10-24T02:25:43;14.04;;;7.77;;
60336;SDS011;46978;50.288;28.624;2022-10-24T02:27:58;10.41;;;7.12;;
60336;SDS011;46978;50.288;28.624;2022-10-24T02:29:11;12.57;;;6.87;;
60336;SDS011;46978;50.288;28.624;2022-10-24T02:30:16;12.37;;;7.74;;
60336;SDS011;46978;50.288;28.624;2022-10-24T02:31:21;12.99;;;7.50;;
60336;SDS011;46978;50.288;28.624;2022-10-24T02:32:35;14.57;;;7.39;;
60336;SDS011;46978;50.288;28.624;2022-10-24T02:33:39;12.52;;;6.75;;
60336;SDS011;46978;50.288;28.624;2022-10-24T02:34:42;13.38;;;7.65;;
60336;SDS011;46978;50.288;28.624;2022-10-24T02:35:46;11.69;;;6.99;;
60336;SDS011;46978;50.288;28.624;2022-10-24T02:36:50;12.31;;;6.88;;
60336;SDS011;46978;50.288;28.624;2022-10-24T02:39:20;10.49;;;6.78;;
60336;SDS011;46978;50.288;28.624;2022-10-24T02:40:23;13.17;;;7.46;;
60336;SDS011;46978;50.288;28.624;2022-10-24T02:41:27;12.39;;;7.47;;
60336;SDS011;46978;50.288;28.624;2022-10-24T02:42:31;14.01;;;7.76;;
60336;SDS011;46978;50.288;28.624;2022-10-24T02:43:35;13.25;;;7.66;;
60336;SDS011;46978;50.288;28.624;2022-10-24T02:44:39;16.33;;;6.95;;
60336;SDS011;46978;50.288;28.624;2022-10-24T02:45:42;12.25;;;7.05;;
60336;SDS011;46978;50.288;28.624;2022-10-24T02:46:46;12.92;;;7.34;;
60336;SDS011;46978;50.288;28.624;2022-10-24T02:47:51;11.86;;;7.11;;
60336;SDS011;46978;50.288;28.624;2022-10-24T02:48:56;10.79;;;7.62;;
60336;SDS011;46978;50.288;28.624;2022-10-24T02:50:01;9.94;;;6.66;;
60336;SDS011;46978;50.288;28.624;2022-10-24T02:51:24;11.83;;;6.76;;
60336;SDS011;46978;50.288;28.624;2022-10-24T02:52:29;12.77;;;7.00;;
60336;SDS011;46978;50.288;28.624;2022-10-24T02:53:33;11.80;;;7.01;;
60336;SDS011;46978;50.288;28.624;2022-10-24T02:54:36;15.47;;;7.61;;
60336;SDS011;46978;50.288;28.624;2022-10-24T02:55:38;12.90;;;7.46;;
60336;SDS011;46978;50.288;28.624;2022-10-24T02:56:41;12.03;;;7.50;;
60336;SDS011;46978;50.288;28.624;2022-10-24T02:57:45;12.74;;;7.35;;
60336;SDS011;46978;50.288;28.624;2022-10-24T02:58:47;23.57;;;12.34;;
60336;SDS011;46978;50.288;28.624;2022-10-24T02:59:49;24.79;;;13.26;;
60336;SDS011;46978;50.288;28.624;2022-10-24T03:00:50;24.57;;;13.39;;
60336;SDS011;46978;50.288;28.624;2022-10-24T03:01:52;24.57;;;13.44;;
60336;SDS011;46978;50.288;28.624;2022-10-24T03:02:54;27.67;;;15.64;;
60336;SDS011;46978;50.288;28.624;2022-10-24T03:03:56;31.52;;;16.67;;
60336;SDS011;46978;50.288;28.624;2022-10-24T03:04:58;31.64;;;18.35;;
60336;SDS011;46978;50.288;28.624;2022-10-24T03:06:00;25.83;;;15.22;;
60336;SDS011;46978;50.288;28.624;2022-10-24T03:07:02;24.06;;;12.95;;
60336;SDS011;46978;50.288;28.624;2022-10-24T03:08:04;20.91;;;10.85;;
60336;SDS011;46978;50.288;28.624;2022-10-24T03:09:06;21.45;;;10.81;;
60336;SDS011;46978;50.288;28.624;2022-10-24T03:10:08;18.47;;;10.59;;
60336;SDS011;46978;50.288;28.624;2022-10-24T03:12:32;15.04;;;8.27;;
60336;SDS011;46978;50.288;28.624;2022-10-24T03:13:34;12.31;;;7.49;;
60336;SDS011;46978;50.288;28.624;2022-10-24T03:14:35;12.93;;;6.99;;
60336;SDS011;46978;50.288;28.624;2022-10-24T03:16:59;13.66;;;7.08;;
60336;SDS011;46978;50.288;28.624;2022-10-24T03:18:00;13.63;;;7.45;;
60336;SDS011;46978;50.288;28.624;2022-10-24T03:19:02;12.43;;;7.13;;
60336;SDS011;46978;50.288;28.624;2022-10-24T03:20:04;11.71;;;7.13;;
60336;SDS011;46978;50.288;28.624;2022-10-24T03:21:07;12.03;;;7.10;;
60336;SDS011;46978;50.288;28.624;2022-10-24T03:22:09;13.01;;;7.02;;
60336;SDS011;46978;50.288;28.624;2022-10-24T03:23:11;11.27;;;6.77;;
60336;SDS011;46978;50.288;28.624;2022-10-24T03:24:13;12.96;;;7.25;;
60336;SDS011;46978;50.288;28.624;2022-10-24T03:25:15;11.85;;;7.05;;
60336;SDS011;46978;50.288;28.624;2022-10-24T03:26:17;13.13;;;7.31;;
60336;SDS011;46978;50.288;28.624;2022-10-24T03:27:19;14.39;;;7.62;;
60336;SDS011;46978;50.288;28.624;2022-10-24T03:28:20;14.36;;;7.33;;
60336;SDS011;46978;50.288;28.624;2022-10-24T03:29:22;12.93;;;7.79;;
60336;SDS011;46978;50.288;28.624;2022-10-24T03:30:24;13.55;;;7.57;;
60336;SDS011;46978;50.288;28.624;2022-10-24T03:31:26;14.60;;;7.99;;
60336;SDS011;46978;50.288;28.624;2022-10-24T03:32:28;12.83;;;7.78;;
60336;SDS011;46978;50.288;28.624;2022-10-24T03:33:30;12.45;;;7.64;;
60336;SDS011;46978;50.288;28.624;2022-10-24T03:34:32;11.42;;;7.08;;
60336;SDS011;46978;50.288;28.624;2022-10-24T03:35:34;12.19;;;8.37;;
60336;SDS011;46978;50.288;28.624;2022-10-24T03:36:36;14.94;;;8.01;;
60336;SDS011;46978;50.288;28.624;2022-10-24T03:37:38;12.06;;;8.13;;
60336;SDS011;46978;50.288;28.624;2022-10-24T03:38:40;14.77;;;8.07;;
60336;SDS011;46978;50.288;28.624;2022-10-24T03:39:41;15.56;;;8.95;;
60336;SDS011;46978;50.288;28.624;2022-10-24T03:40:43;11.99;;;7.85;;
60336;SDS011;46978;50.288;28.624;2022-10-24T03:41:45;13.40;;;7.87;;
60336;SDS011;46978;50.288;28.624;2022-10-24T03:42:46;13.43;;;9.01;;
60336;SDS011;46978;50.288;28.624;2022-10-24T03:43:48;13.37;;;8.01;;
60336;SDS011;46978;50.288;28.624;2022-10-24T03:44:50;13.45;;;8.29;;
60336;SDS011;46978;50.288;28.624;2022-10-24T03:45:52;14.44;;;8.31;;
60336;SDS011;46978;50.288;28.624;2022-10-24T03:46:54;12.30;;;8.14;;
60336;SDS011;46978;50.288;28.624;2022-10-24T03:47:56;12.36;;;8.13;;
60336;SDS011;46978;50.288;28.624;2022-10-24T03:48:57;13.22;;;8.41;;
60336;SDS011;46978;50.288;28.624;2022-10-24T03:49:59;11.41;;;7.78;;
60336;SDS011;46978;50.288;28.624;2022-10-24T03:51:01;13.73;;;8.21;;
60336;SDS011;46978;50.288;28.624;2022-10-24T03:52:03;13.60;;;7.98;;
60336;SDS011;46978;50.288;28.624;2022-10-24T03:53:05;14.36;;;8.41;;
60336;SDS011;46978;50.288;28.624;2022-10-24T03:54:07;13.02;;;7.69;;
60336;SDS011;46978;50.288;28.624;2022-10-24T03:55:09;13.21;;;7.95;;
60336;SDS011;46978;50.288;28.624;2022-10-24T03:56:11;12.12;;;7.75;;
60336;SDS011;46978;50.288;28.624;2022-10-24T03:57:13;14.24;;;7.77;;
60336;SDS011;46978;50.288;28.624;2022-10-24T03:58:14;12.41;;;8.19;;
60336;SDS011;46978;50.288;28.624;2022-10-24T03:59:16;16.83;;;8.86;;
60336;SDS011;46978;50.288;28.624;2022-10-24T04:00:18;12.23;;;7.93;;
60336;SDS011;46978;50.288;28.624;2022-10-24T04:01:20;12.67;;;8.55;;
60336;SDS011;46978;50.288;28.624;2022-10-24T04:02:22;11.21;;;7.82;;
60336;SDS011;46978;50.288;28.624;2022-10-24T04:03:25;12.33;;;7.86;;
60336;SDS011;46978;50.288;28.624;2022-10-24T04:04:27;13.34;;;7.74;;
60336;SDS011;46978;50.288;28.624;2022-10-24T04:05:29;11.36;;;7.79;;
60336;SDS011;46978;50.288;28.624;2022-10-24T04:06:31;14.05;;;8.27;;
60336;SDS011;46978;50.288;28.624;2022-10-24T04:07:33;13.56;;;8.39;;
60336;SDS011;46978;50.288;28.624;2022-10-24T04:08:35;13.79;;;8.67;;
60336;SDS011;46978;50.288;28.624;2022-10-24T04:09:37;12.75;;;7.60;;
60336;SDS011;46978;50.288;28.624;2022-10-24T04:10:38;12.81;;;7.47;;
60336;SDS011;46978;50.288;28.624;2022-10-24T04:11:40;12.61;;;8.19;;
60336;SDS011;46978;50.288;28.624;2022-10-24T04:12:42;12.23;;;8.28;;
60336;SDS011;46978;50.288;28.624;2022-10-24T04:13:44;13.36;;;8.04;;
60336;SDS011;46978;50.288;28.624;2022-10-24T04:14:46;15.96;;;8.83;;
60336;SDS011;46978;50.288;28.624;2022-10-24T04:15:47;14.56;;;9.00;;
60336;SDS011;46978;50.288;28.624;2022-10-24T04:18:11;13.89;;;8.86;;
60336;SDS011;46978;50.288;28.624;2022-10-24T04:19:12;14.47;;;8.37;;
60336;SDS011;46978;50.288;28.624;2022-10-24T04:20:14;15.26;;;8.84;;
60336;SDS011;46978;50.288;28.624;2022-10-24T04:21:16;13.18;;;8.39;;
60336;SDS011;46978;50.288;28.624;2022-10-24T04:22:19;11.61;;;8.03;;
60336;SDS011;46978;50.288;28.624;2022-10-24T04:23:20;12.53;;;8.19;;
60336;SDS011;46978;50.288;28.624;2022-10-24T04:24:22;11.77;;;8.15;;
60336;SDS011;46978;50.288;28.624;2022-10-24T04:25:24;12.53;;;8.43;;
60336;SDS011;46978;50.288;28.624;2022-10-24T04:26:26;14.07;;;7.89;;
60336;SDS011;46978;50.288;28.624;2022-10-24T04:27:28;14.72;;;8.53;;
60336;SDS011;46978;50.288;28.624;2022-10-24T04:28:30;12.67;;;8.37;;
60336;SDS011;46978;50.288;28.624;2022-10-24T04:29:32;13.26;;;8.73;;
60336;SDS011;46978;50.288;28.624;2022-10-24T04:30:34;11.29;;;7.48;;
60336;SDS011;46978;50.288;28.624;2022-10-24T04:31:36;13.02;;;8.37;;
60336;SDS011;46978;50.288;28.624;2022-10-24T04:32:38;14.13;;;8.06;;
60336;SDS011;46978;50.288;28.624;2022-10-24T04:33:40;15.13;;;8.33;;
60336;SDS011;46978;50.288;28.624;2022-10-24T04:34:42;14.95;;;8.27;;
60336;SDS011;46978;50.288;28.624;2022-10-24T04:35:47;14.10;;;8.51;;
60336;SDS011;46978;50.288;28.624;2022-10-24T04:36:50;13.06;;;7.91;;
60336;SDS011;46978;50.288;28.624;2022-10-24T04:37:52;14.34;;;8.81;;
60336;SDS011;46978;50.288;28.624;2022-10-24T04:38:54;14.30;;;8.34;;
60336;SDS011;46978;50.288;28.624;2022-10-24T04:39:55;12.53;;;8.19;;
60336;SDS011;46978;50.288;28.624;2022-10-24T04:40:57;13.21;;;7.91;;
60336;SDS011;46978;50.288;28.624;2022-10-24T04:41:59;16.67;;;8.61;;
60336;SDS011;46978;50.288;28.624;2022-10-24T04:43:01;14.77;;;8.44;;
60336;SDS011;46978;50.288;28.624;2022-10-24T04:44:02;13.56;;;8.05;;
60336;SDS011;46978;50.288;28.624;2022-10-24T04:45:05;15.16;;;9.23;;
60336;SDS011;46978;50.288;28.624;2022-10-24T04:46:08;13.20;;;8.39;;
60336;SDS011;46978;50.288;28.624;2022-10-24T04:47:09;11.59;;;7.79;;
60336;SDS011;46978;50.288;28.624;2022-10-24T04:48:11;14.40;;;8.71;;
60336;SDS011;46978;50.288;28.624;2022-10-24T04:49:14;16.58;;;7.70;;
60336;SDS011;46978;50.288;28.624;2022-10-24T04:50:15;13.49;;;8.43;;
60336;SDS011;46978;50.288;28.624;2022-10-24T04:51:17;15.25;;;8.82;;
60336;SDS011;46978;50.288;28.624;2022-10-24T04:52:19;15.15;;;8.76;;
60336;SDS011;46978;50.288;28.624;2022-10-24T04:53:21;17.34;;;8.31;;
60336;SDS011;46978;50.288;28.624;2022-10-24T04:54:23;13.86;;;8.55;;
60336;SDS011;46978;50.288;28.624;2022-10-24T04:55:24;13.03;;;8.34;;
60336;SDS011;46978;50.288;28.624;2022-10-24T04:56:26;13.13;;;8.47;;
60336;SDS011;46978;50.288;28.624;2022-10-24T04:57:28;15.97;;;8.54;;
60336;SDS011;46978;50.288;28.624;2022-10-24T04:58:29;17.08;;;9.06;;
60336;SDS011;46978;50.288;28.624;2022-10-24T04:59:31;16.16;;;8.57;;
60336;SDS011;46978;50.288;28.624;2022-10-24T05:00:33;16.64;;;9.19;;
60336;SDS011;46978;50.288;28.624;2022-10-24T05:01:34;13.05;;;8.66;;
60336;SDS011;46978;50.288;28.624;2022-10-24T05:02:36;13.07;;;8.44;;
60336;SDS011;46978;50.288;28.624;2022-10-24T05:03:38;17.46;;;9.17;;
60336;SDS011;46978;50.288;28.624;2022-10-24T05:04:40;15.39;;;8.82;;
60336;SDS011;46978;50.288;28.624;2022-10-24T05:05:41;15.94;;;8.82;;
60336;SDS011;46978;50.288;28.624;2022-10-24T05:06:44;14.65;;;8.99;;
60336;SDS011;46978;50.288;28.624;2022-10-24T05:07:46;14.10;;;8.95;;
60336;SDS011;46978;50.288;28.624;2022-10-24T05:08:48;15.02;;;8.56;;
60336;SDS011;46978;50.288;28.624;2022-10-24T05:09:50;15.94;;;8.43;;
60336;SDS011;46978;50.288;28.624;2022-10-24T05:10:51;13.13;;;8.41;;
60336;SDS011;46978;50.288;28.624;2022-10-24T05:11:58;12.68;;;8.01;;
60336;SDS011;46978;50.288;28.624;2022-10-24T05:12:57;14.21;;;8.44;;
60336;SDS011;46978;50.288;28.624;2022-10-24T05:13:59;15.20;;;8.42;;
60336;SDS011;46978;50.288;28.624;2022-10-24T05:15:00;12.78;;;8.07;;
60336;SDS011;46978;50.288;28.624;2022-10-24T05:16:03;13.21;;;8.25;;
60336;SDS011;46978;50.288;28.624;2022-10-24T05:17:05;14.33;;;8.25;;
60336;SDS011;46978;50.288;28.624;2022-10-24T05:18:07;16.20;;;8.26;;
60336;SDS011;46978;50.288;28.624;2022-10-24T05:19:09;14.68;;;9.08;;
60336;SDS011;46978;50.288;28.624;2022-10-24T05:20:11;12.51;;;7.83;;
60336;SDS011;46978;50.288;28.624;2022-10-24T05:21:13;12.44;;;8.21;;
60336;SDS011;46978;50.288;28.624;2022-10-24T05:22:15;12.48;;;8.26;;
60336;SDS011;46978;50.288;28.624;2022-10-24T05:23:17;14.79;;;8.64;;
60336;SDS011;46978;50.288;28.624;2022-10-24T05:24:19;13.15;;;8.29;;
60336;SDS011;46978;50.288;28.624;2022-10-24T05:25:20;13.57;;;8.53;;
60336;SDS011;46978;50.288;28.624;2022-10-24T05:26:22;15.19;;;8.47;;
60336;SDS011;46978;50.288;28.624;2022-10-24T05:27:24;15.10;;;8.72;;
60336;SDS011;46978;50.288;28.624;2022-10-24T05:28:26;15.29;;;8.45;;
60336;SDS011;46978;50.288;28.624;2022-10-24T05:29:28;15.05;;;7.91;;
60336;SDS011;46978;50.288;28.624;2022-10-24T05:30:30;13.63;;;8.04;;
60336;SDS011;46978;50.288;28.624;2022-10-24T05:31:32;13.15;;;8.55;;
60336;SDS011;46978;50.288;28.624;2022-10-24T05:32:34;13.46;;;8.59;;
60336;SDS011;46978;50.288;28.624;2022-10-24T05:33:36;13.49;;;8.03;;
60336;SDS011;46978;50.288;28.624;2022-10-24T05:34:38;15.36;;;8.68;;
60336;SDS011;46978;50.288;28.624;2022-10-24T05:35:39;13.88;;;8.54;;
60336;SDS011;46978;50.288;28.624;2022-10-24T05:36:41;13.20;;;8.31;;
60336;SDS011;46978;50.288;28.624;2022-10-24T05:37:43;16.24;;;8.99;;
60336;SDS011;46978;50.288;28.624;2022-10-24T05:38:45;15.90;;;8.94;;
60336;SDS011;46978;50.288;28.624;2022-10-24T05:39:47;16.81;;;10.23;;
60336;SDS011;46978;50.288;28.624;2022-10-24T05:40:49;22.33;;;12.95;;
60336;SDS011;46978;50.288;28.624;2022-10-24T05:41:51;32.51;;;21.56;;
60336;SDS011;46978;50.288;28.624;2022-10-24T05:42:52;35.74;;;24.04;;
60336;SDS011;46978;50.288;28.624;2022-10-24T05:43:54;37.92;;;25.64;;
60336;SDS011;46978;50.288;28.624;2022-10-24T05:44:56;41.34;;;27.98;;
60336;SDS011;46978;50.288;28.624;2022-10-24T05:45:58;38.73;;;29.89;;
60336;SDS011;46978;50.288;28.624;2022-10-24T05:47:00;42.00;;;28.56;;
60336;SDS011;46978;50.288;28.624;2022-10-24T05:48:01;44.24;;;30.89;;
60336;SDS011;46978;50.288;28.624;2022-10-24T05:49:03;41.53;;;28.98;;
60336;SDS011;46978;50.288;28.624;2022-10-24T05:50:06;46.44;;;30.94;;
60336;SDS011;46978;50.288;28.624;2022-10-24T05:51:09;43.87;;;29.34;;
60336;SDS011;46978;50.288;28.624;2022-10-24T05:52:10;36.09;;;27.21;;
60336;SDS011;46978;50.288;28.624;2022-10-24T05:53:12;38.71;;;28.53;;
60336;SDS011;46978;50.288;28.624;2022-10-24T05:54:14;45.82;;;30.15;;
60336;SDS011;46978;50.288;28.624;2022-10-24T05:55:16;42.97;;;30.69;;
60336;SDS011;46978;50.288;28.624;2022-10-24T05:56:19;32.19;;;22.01;;
60336;SDS011;46978;50.288;28.624;2022-10-24T05:57:20;28.07;;;19.85;;
60336;SDS011;46978;50.288;28.624;2022-10-24T05:58:22;28.00;;;19.50;;
60336;SDS011;46978;50.288;28.624;2022-10-24T05:59:24;29.06;;;18.68;;
60336;SDS011;46978;50.288;28.624;2022-10-24T06:00:26;26.69;;;18.15;;
60336;SDS011;46978;50.288;28.624;2022-10-24T06:01:28;30.25;;;18.75;;
60336;SDS011;46978;50.288;28.624;2022-10-24T06:02:31;28.75;;;18.27;;
60336;SDS011;46978;50.288;28.624;2022-10-24T06:03:33;25.31;;;15.51;;
60336;SDS011;46978;50.288;28.624;2022-10-24T06:04:35;25.29;;;14.71;;
60336;SDS011;46978;50.288;28.624;2022-10-24T06:05:36;22.25;;;14.22;;
60336;SDS011;46978;50.288;28.624;2022-10-24T06:06:42;24.43;;;13.61;;
60336;SDS011;46978;50.288;28.624;2022-10-24T06:07:45;25.31;;;12.92;;
60336;SDS011;46978;50.288;28.624;2022-10-24T06:08:47;20.17;;;10.61;;
60336;SDS011;46978;50.288;28.624;2022-10-24T06:09:49;17.98;;;10.45;;
60336;SDS011;46978;50.288;28.624;2022-10-24T06:10:51;18.26;;;11.01;;
60336;SDS011;46978;50.288;28.624;2022-10-24T06:11:53;15.06;;;9.83;;
60336;SDS011;46978;50.288;28.624;2022-10-24T06:12:54;15.22;;;9.59;;
60336;SDS011;46978;50.288;28.624;2022-10-24T06:13:56;17.22;;;9.47;;
60336;SDS011;46978;50.288;28.624;2022-10-24T06:14:58;15.29;;;9.67;;
60336;SDS011;46978;50.288;28.624;2022-10-24T06:16:00;16.77;;;9.05;;
60336;SDS011;46978;50.288;28.624;2022-10-24T06:17:02;15.95;;;9.09;;
60336;SDS011;46978;50.288;28.624;2022-10-24T06:18:04;20.62;;;10.55;;
60336;SDS011;46978;50.288;28.624;2022-10-24T06:19:06;20.64;;;10.11;;
60336;SDS011;46978;50.288;28.624;2022-10-24T06:20:09;19.97;;;10.48;;
60336;SDS011;46978;50.288;28.624;2022-10-24T06:21:11;25.15;;;10.87;;
60336;SDS011;46978;50.288;28.624;2022-10-24T06:22:13;27.06;;;11.75;;
60336;SDS011;46978;50.288;28.624;2022-10-24T06:23:15;21.99;;;10.90;;
60336;SDS011;46978;50.288;28.624;2022-10-24T06:24:16;21.51;;;10.52;;
60336;SDS011;46978;50.288;28.624;2022-10-24T06:25:18;21.39;;;9.93;;
60336;SDS011;46978;50.288;28.624;2022-10-24T06:26:20;20.55;;;10.01;;
60336;SDS011;46978;50.288;28.624;2022-10-24T06:27:22;15.94;;;8.92;;
60336;SDS011;46978;50.288;28.624;2022-10-24T06:28:24;16.49;;;9.27;;
60336;SDS011;46978;50.288;28.624;2022-10-24T06:29:26;16.23;;;8.97;;
60336;SDS011;46978;50.288;28.624;2022-10-24T06:30:28;15.53;;;9.44;;
60336;SDS011;46978;50.288;28.624;2022-10-24T06:31:30;15.97;;;9.25;;
60336;SDS011;46978;50.288;28.624;2022-10-24T06:32:32;12.61;;;8.54;;
60336;SDS011;46978;50.288;28.624;2022-10-24T06:33:34;14.41;;;8.71;;
60336;SDS011;46978;50.288;28.624;2022-10-24T06:34:36;14.32;;;8.91;;
60336;SDS011;46978;50.288;28.624;2022-10-24T06:35:37;16.75;;;9.09;;
60336;SDS011;46978;50.288;28.624;2022-10-24T06:36:39;15.65;;;8.72;;
60336;SDS011;46978;50.288;28.624;2022-10-24T06:37:41;16.23;;;8.86;;
60336;SDS011;46978;50.288;28.624;2022-10-24T06:38:43;15.01;;;8.87;;
60336;SDS011;46978;50.288;28.624;2022-10-24T06:39:44;13.01;;;9.19;;
60336;SDS011;46978;50.288;28.624;2022-10-24T06:40:46;12.88;;;8.61;;
60336;SDS011;46978;50.288;28.624;2022-10-24T06:41:48;15.50;;;8.91;;